sensor_id;sensor_type;location;lat;lon;timestamp;P1;durP1;ratioP1;P2;durP2;ratioP2
77103;SDS011;66052;43.498;3.710;2022-12-24T00:00:25;6.97;;;4.25;;
77103;SDS011;66052;43.498;3.710;2022-12-24T00:02:51;6.07;;;3.53;;
77103;SDS011;66052;43.498;3.710;2022-12-24T00:05:17;5.90;;;3.25;;
77103;SDS011;66052;43.498;3.710;2022-12-24T00:07:43;4.50;;;3.22;;
77103;SDS011;66052;43.498;3.710;2022-12-24T00:10:09;4.45;;;3.22;;
77103;SDS011;66052;43.498;3.710;2022-12-24T00:12:35;4.85;;;3.30;;
77103;SDS011;66052;43.498;3.710;2022-12-24T00:15:02;5.80;;;3.15;;
77103;SDS011;66052;43.498;3.710;2022-12-24T00:17:28;4.32;;;3.17;;
77103;SDS011;66052;43.498;3.710;2022-12-24T00:19:54;7.65;;;3.72;;
77103;SDS011;66052;43.498;3.710;2022-12-24T00:22:20;7.05;;;3.00;;
77103;SDS011;66052;43.498;3.710;2022-12-24T00:24:45;4.40;;;3.22;;
77103;SDS011;66052;43.498;3.710;2022-12-24T00:27:11;4.47;;;3.10;;
77103;SDS011;66052;43.498;3.710;2022-12-24T00:29:36;5.03;;;3.22;;
77103;SDS011;66052;43.498;3.710;2022-12-24T00:32:02;3.45;;;2.60;;
77103;SDS011;66052;43.498;3.710;2022-12-24T00:34:32;4.45;;;3.10;;
77103;SDS011;66052;43.498;3.710;2022-12-24T00:36:58;5.93;;;3.33;;
77103;SDS011;66052;43.498;3.710;2022-12-24T00:39:24;5.93;;;3.45;;
77103;SDS011;66052;43.498;3.710;2022-12-24T00:41:49;5.10;;;3.40;;
77103;SDS011;66052;43.498;3.710;2022-12-24T00:44:15;5.50;;;3.50;;
77103;SDS011;66052;43.498;3.710;2022-12-24T00:46:41;5.88;;;3.90;;
77103;SDS011;66052;43.498;3.710;2022-12-24T00:49:07;6.80;;;3.17;;
77103;SDS011;66052;43.498;3.710;2022-12-24T00:51:35;4.35;;;3.30;;
77103;SDS011;66052;43.498;3.710;2022-12-24T00:54:01;5.10;;;3.83;;
77103;SDS011;66052;43.498;3.710;2022-12-24T00:56:27;7.07;;;4.28;;
77103;SDS011;66052;43.498;3.710;2022-12-24T00:58:53;6.25;;;3.85;;
77103;SDS011;66052;43.498;3.710;2022-12-24T01:01:19;6.50;;;4.50;;
77103;SDS011;66052;43.498;3.710;2022-12-24T01:03:45;8.82;;;5.13;;
77103;SDS011;66052;43.498;3.710;2022-12-24T01:06:13;8.07;;;5.57;;
77103;SDS011;66052;43.498;3.710;2022-12-24T01:08:41;10.05;;;7.18;;
77103;SDS011;66052;43.498;3.710;2022-12-24T01:11:07;10.57;;;7.07;;
77103;SDS011;66052;43.498;3.710;2022-12-24T01:13:34;10.50;;;6.22;;
77103;SDS011;66052;43.498;3.710;2022-12-24T01:16:00;10.43;;;5.75;;
77103;SDS011;66052;43.498;3.710;2022-12-24T01:18:26;8.45;;;5.50;;
77103;SDS011;66052;43.498;3.710;2022-12-24T01:20:59;7.70;;;5.05;;
77103;SDS011;66052;43.498;3.710;2022-12-24T01:23:27;7.57;;;5.15;;
77103;SDS011;66052;43.498;3.710;2022-12-24T01:25:54;7.50;;;5.07;;
77103;SDS011;66052;43.498;3.710;2022-12-24T01:28:19;10.20;;;5.00;;
77103;SDS011;66052;43.498;3.710;2022-12-24T01:30:46;7.47;;;5.13;;
77103;SDS011;66052;43.498;3.710;2022-12-24T01:33:12;7.05;;;5.47;;
77103;SDS011;66052;43.498;3.710;2022-12-24T01:35:42;8.20;;;6.20;;
77103;SDS011;66052;43.498;3.710;2022-12-24T01:38:08;9.82;;;6.72;;
77103;SDS011;66052;43.498;3.710;2022-12-24T01:40:36;10.90;;;6.07;;
77103;SDS011;66052;43.498;3.710;2022-12-24T01:43:21;9.65;;;5.85;;
77103;SDS011;66052;43.498;3.710;2022-12-24T01:46:08;7.07;;;4.68;;
77103;SDS011;66052;43.498;3.710;2022-12-24T01:48:43;7.18;;;4.25;;
77103;SDS011;66052;43.498;3.710;2022-12-24T01:51:29;6.13;;;4.10;;
77103;SDS011;66052;43.498;3.710;2022-12-24T01:54:14;6.75;;;4.72;;
77103;SDS011;66052;43.498;3.710;2022-12-24T01:56:48;6.38;;;3.40;;
77103;SDS011;66052;43.498;3.710;2022-12-24T01:59:35;4.93;;;3.60;;
77103;SDS011;66052;43.498;3.710;2022-12-24T02:02:02;5.63;;;3.20;;
77103;SDS011;66052;43.498;3.710;2022-12-24T02:07:17;4.45;;;3.20;;
77103;SDS011;66052;43.498;3.710;2022-12-24T02:09:43;5.70;;;3.30;;
77103;SDS011;66052;43.498;3.710;2022-12-24T02:12:09;3.85;;;2.72;;
77103;SDS011;66052;43.498;3.710;2022-12-24T02:14:35;6.22;;;3.75;;
77103;SDS011;66052;43.498;3.710;2022-12-24T02:27:59;7.82;;;5.45;;
77103;SDS011;66052;43.498;3.710;2022-12-24T02:30:42;6.28;;;3.83;;
77103;SDS011;66052;43.498;3.710;2022-12-24T02:33:23;6.75;;;3.50;;
77103;SDS011;66052;43.498;3.710;2022-12-24T02:36:05;4.55;;;3.42;;
77103;SDS011;66052;43.498;3.710;2022-12-24T02:38:47;7.72;;;4.30;;
77103;SDS011;66052;43.498;3.710;2022-12-24T02:41:23;6.82;;;4.40;;
77103;SDS011;66052;43.498;3.710;2022-12-24T02:43:51;8.18;;;4.20;;
77103;SDS011;66052;43.498;3.710;2022-12-24T02:46:26;6.32;;;4.60;;
77103;SDS011;66052;43.498;3.710;2022-12-24T02:48:54;7.60;;;4.57;;
77103;SDS011;66052;43.498;3.710;2022-12-24T02:51:23;8.50;;;4.70;;
77103;SDS011;66052;43.498;3.710;2022-12-24T02:53:49;9.52;;;5.38;;
77103;SDS011;66052;43.498;3.710;2022-12-24T02:59:13;7.70;;;5.50;;
77103;SDS011;66052;43.498;3.710;2022-12-24T03:02:06;7.03;;;4.65;;
77103;SDS011;66052;43.498;3.710;2022-12-24T03:07:35;8.20;;;4.57;;
77103;SDS011;66052;43.498;3.710;2022-12-24T03:12:53;8.30;;;4.63;;
77103;SDS011;66052;43.498;3.710;2022-12-24T03:17:53;6.10;;;4.32;;
77103;SDS011;66052;43.498;3.710;2022-12-24T03:20:24;7.35;;;4.30;;
77103;SDS011;66052;43.498;3.710;2022-12-24T03:22:56;7.07;;;4.30;;
77103;SDS011;66052;43.498;3.710;2022-12-24T03:25:22;5.18;;;4.13;;
77103;SDS011;66052;43.498;3.710;2022-12-24T03:27:49;4.97;;;3.80;;
77103;SDS011;66052;43.498;3.710;2022-12-24T03:30:16;7.60;;;4.32;;
77103;SDS011;66052;43.498;3.710;2022-12-24T03:32:42;3.85;;;3.20;;
77103;SDS011;66052;43.498;3.710;2022-12-24T03:35:08;4.32;;;3.40;;
77103;SDS011;66052;43.498;3.710;2022-12-24T03:37:35;6.05;;;3.95;;
77103;SDS011;66052;43.498;3.710;2022-12-24T03:40:01;7.65;;;3.97;;
77103;SDS011;66052;43.498;3.710;2022-12-24T03:42:27;6.97;;;3.90;;
77103;SDS011;66052;43.498;3.710;2022-12-24T03:44:53;7.47;;;3.80;;
77103;SDS011;66052;43.498;3.710;2022-12-24T03:47:18;4.60;;;3.70;;
77103;SDS011;66052;43.498;3.710;2022-12-24T03:49:44;6.18;;;3.97;;
77103;SDS011;66052;43.498;3.710;2022-12-24T03:52:10;5.63;;;3.63;;
77103;SDS011;66052;43.498;3.710;2022-12-24T03:54:35;6.22;;;3.83;;
77103;SDS011;66052;43.498;3.710;2022-12-24T03:57:01;6.25;;;4.05;;
77103;SDS011;66052;43.498;3.710;2022-12-24T03:59:27;6.30;;;3.97;;
77103;SDS011;66052;43.498;3.710;2022-12-24T04:01:52;5.25;;;3.58;;
77103;SDS011;66052;43.498;3.710;2022-12-24T04:04:18;5.75;;;3.83;;
77103;SDS011;66052;43.498;3.710;2022-12-24T04:06:44;4.60;;;3.20;;
77103;SDS011;66052;43.498;3.710;2022-12-24T04:09:10;4.38;;;3.53;;
77103;SDS011;66052;43.498;3.710;2022-12-24T04:11:35;5.90;;;4.13;;
77103;SDS011;66052;43.498;3.710;2022-12-24T04:14:01;5.00;;;3.80;;
77103;SDS011;66052;43.498;3.710;2022-12-24T04:16:27;5.63;;;4.03;;
77103;SDS011;66052;43.498;3.710;2022-12-24T04:18:52;7.20;;;3.60;;
77103;SDS011;66052;43.498;3.710;2022-12-24T04:21:18;5.80;;;3.72;;
77103;SDS011;66052;43.498;3.710;2022-12-24T04:23:44;5.05;;;4.10;;
77103;SDS011;66052;43.498;3.710;2022-12-24T04:26:10;5.90;;;3.92;;
77103;SDS011;66052;43.498;3.710;2022-12-24T04:28:37;6.43;;;4.32;;
77103;SDS011;66052;43.498;3.710;2022-12-24T04:31:06;8.88;;;4.68;;
77103;SDS011;66052;43.498;3.710;2022-12-24T04:33:35;6.10;;;4.43;;
77103;SDS011;66052;43.498;3.710;2022-12-24T04:36:02;6.78;;;4.35;;
77103;SDS011;66052;43.498;3.710;2022-12-24T04:38:30;7.35;;;4.50;;
77103;SDS011;66052;43.498;3.710;2022-12-24T04:40:57;5.30;;;3.90;;
77103;SDS011;66052;43.498;3.710;2022-12-24T04:43:24;6.45;;;4.00;;
77103;SDS011;66052;43.498;3.710;2022-12-24T04:45:51;5.88;;;4.00;;
77103;SDS011;66052;43.498;3.710;2022-12-24T04:48:16;6.40;;;4.47;;
77103;SDS011;66052;43.498;3.710;2022-12-24T04:50:42;6.45;;;4.00;;
77103;SDS011;66052;43.498;3.710;2022-12-24T04:53:07;5.57;;;4.13;;
77103;SDS011;66052;43.498;3.710;2022-12-24T04:55:33;6.55;;;3.67;;
77103;SDS011;66052;43.498;3.710;2022-12-24T04:57:59;6.70;;;4.00;;
77103;SDS011;66052;43.498;3.710;2022-12-24T05:00:24;4.82;;;3.60;;
77103;SDS011;66052;43.498;3.710;2022-12-24T05:02:50;5.28;;;3.90;;
77103;SDS011;66052;43.498;3.710;2022-12-24T05:05:16;5.43;;;3.60;;
77103;SDS011;66052;43.498;3.710;2022-12-24T05:07:42;6.25;;;3.60;;
77103;SDS011;66052;43.498;3.710;2022-12-24T05:10:07;5.35;;;3.75;;
77103;SDS011;66052;43.498;3.710;2022-12-24T05:12:35;5.80;;;3.97;;
77103;SDS011;66052;43.498;3.710;2022-12-24T05:15:00;4.80;;;3.80;;
77103;SDS011;66052;43.498;3.710;2022-12-24T05:17:26;10.20;;;4.85;;
77103;SDS011;66052;43.498;3.710;2022-12-24T05:19:52;5.03;;;3.55;;
77103;SDS011;66052;43.498;3.710;2022-12-24T05:22:17;6.03;;;3.58;;
77103;SDS011;66052;43.498;3.710;2022-12-24T05:25:01;8.40;;;6.25;;
77103;SDS011;66052;43.498;3.710;2022-12-24T05:27:45;15.07;;;11.00;;
77103;SDS011;66052;43.498;3.710;2022-12-24T05:30:11;16.65;;;13.02;;
77103;SDS011;66052;43.498;3.710;2022-12-24T05:32:37;13.45;;;10.35;;
77103;SDS011;66052;43.498;3.710;2022-12-24T05:35:03;12.68;;;9.27;;
77103;SDS011;66052;43.498;3.710;2022-12-24T05:37:28;9.32;;;6.88;;
77103;SDS011;66052;43.498;3.710;2022-12-24T05:39:54;6.93;;;4.28;;
77103;SDS011;66052;43.498;3.710;2022-12-24T05:42:20;7.53;;;4.70;;
77103;SDS011;66052;43.498;3.710;2022-12-24T05:44:45;6.82;;;5.07;;
77103;SDS011;66052;43.498;3.710;2022-12-24T05:47:11;5.40;;;4.15;;
77103;SDS011;66052;43.498;3.710;2022-12-24T05:49:37;4.65;;;3.38;;
77103;SDS011;66052;43.498;3.710;2022-12-24T05:52:02;5.63;;;3.92;;
77103;SDS011;66052;43.498;3.710;2022-12-24T05:54:28;5.38;;;3.88;;
77103;SDS011;66052;43.498;3.710;2022-12-24T05:56:54;7.63;;;4.10;;
77103;SDS011;66052;43.498;3.710;2022-12-24T05:59:19;5.00;;;3.47;;
77103;SDS011;66052;43.498;3.710;2022-12-24T06:01:45;6.18;;;3.40;;
77103;SDS011;66052;43.498;3.710;2022-12-24T06:04:12;5.82;;;3.60;;
77103;SDS011;66052;43.498;3.710;2022-12-24T06:06:38;6.28;;;3.53;;
77103;SDS011;66052;43.498;3.710;2022-12-24T06:09:03;6.32;;;3.35;;
77103;SDS011;66052;43.498;3.710;2022-12-24T06:11:29;5.57;;;3.38;;
77103;SDS011;66052;43.498;3.710;2022-12-24T06:13:55;3.58;;;3.08;;
77103;SDS011;66052;43.498;3.710;2022-12-24T06:16:22;4.55;;;3.42;;
77103;SDS011;66052;43.498;3.710;2022-12-24T06:18:48;8.70;;;5.43;;
77103;SDS011;66052;43.498;3.710;2022-12-24T06:21:14;11.65;;;5.90;;
77103;SDS011;66052;43.498;3.710;2022-12-24T06:23:41;8.23;;;4.70;;
77103;SDS011;66052;43.498;3.710;2022-12-24T06:26:08;7.65;;;4.40;;
77103;SDS011;66052;43.498;3.710;2022-12-24T06:28:36;7.05;;;3.78;;
77103;SDS011;66052;43.498;3.710;2022-12-24T06:31:03;6.90;;;4.72;;
77103;SDS011;66052;43.498;3.710;2022-12-24T06:33:30;8.30;;;4.97;;
77103;SDS011;66052;43.498;3.710;2022-12-24T06:35:57;8.00;;;4.65;;
77103;SDS011;66052;43.498;3.710;2022-12-24T06:38:22;8.05;;;4.10;;
77103;SDS011;66052;43.498;3.710;2022-12-24T06:40:48;4.55;;;3.13;;
77103;SDS011;66052;43.498;3.710;2022-12-24T06:43:14;6.13;;;3.90;;
77103;SDS011;66052;43.498;3.710;2022-12-24T06:45:44;6.25;;;3.53;;
77103;SDS011;66052;43.498;3.710;2022-12-24T06:48:11;5.30;;;3.90;;
77103;SDS011;66052;43.498;3.710;2022-12-24T06:50:36;6.50;;;4.20;;
77103;SDS011;66052;43.498;3.710;2022-12-24T06:53:02;6.38;;;3.95;;
77103;SDS011;66052;43.498;3.710;2022-12-24T06:55:28;8.18;;;5.60;;
77103;SDS011;66052;43.498;3.710;2022-12-24T06:57:53;7.85;;;5.35;;
77103;SDS011;66052;43.498;3.710;2022-12-24T07:00:19;10.32;;;7.78;;
77103;SDS011;66052;43.498;3.710;2022-12-24T07:02:48;17.67;;;12.45;;
77103;SDS011;66052;43.498;3.710;2022-12-24T07:05:14;17.77;;;13.50;;
77103;SDS011;66052;43.498;3.710;2022-12-24T07:07:41;17.95;;;12.05;;
77103;SDS011;66052;43.498;3.710;2022-12-24T07:10:13;16.55;;;8.68;;
77103;SDS011;66052;43.498;3.710;2022-12-24T07:12:40;11.05;;;5.63;;
77103;SDS011;66052;43.498;3.710;2022-12-24T07:15:06;6.93;;;5.00;;
77103;SDS011;66052;43.498;3.710;2022-12-24T07:17:32;13.05;;;11.73;;
77103;SDS011;66052;43.498;3.710;2022-12-24T07:19:58;29.55;;;26.45;;
77103;SDS011;66052;43.498;3.710;2022-12-24T07:22:24;13.82;;;12.32;;
77103;SDS011;66052;43.498;3.710;2022-12-24T07:24:49;17.83;;;15.85;;
77103;SDS011;66052;43.498;3.710;2022-12-24T07:27:15;21.15;;;16.95;;
77103;SDS011;66052;43.498;3.710;2022-12-24T07:29:41;15.63;;;12.73;;
77103;SDS011;66052;43.498;3.710;2022-12-24T07:32:07;10.98;;;9.32;;
77103;SDS011;66052;43.498;3.710;2022-12-24T07:34:33;16.88;;;13.50;;
77103;SDS011;66052;43.498;3.710;2022-12-24T07:36:59;14.35;;;12.35;;
77103;SDS011;66052;43.498;3.710;2022-12-24T07:39:24;8.98;;;5.43;;
77103;SDS011;66052;43.498;3.710;2022-12-24T07:41:50;11.70;;;6.82;;
77103;SDS011;66052;43.498;3.710;2022-12-24T07:44:16;8.13;;;5.03;;
77103;SDS011;66052;43.498;3.710;2022-12-24T07:46:42;19.10;;;14.52;;
77103;SDS011;66052;43.498;3.710;2022-12-24T07:49:08;14.77;;;11.50;;
77103;SDS011;66052;43.498;3.710;2022-12-24T07:51:34;26.45;;;21.45;;
77103;SDS011;66052;43.498;3.710;2022-12-24T07:54:00;18.98;;;16.60;;
77103;SDS011;66052;43.498;3.710;2022-12-24T07:56:26;13.88;;;10.82;;
77103;SDS011;66052;43.498;3.710;2022-12-24T07:58:51;11.93;;;7.78;;
77103;SDS011;66052;43.498;3.710;2022-12-24T08:01:17;11.10;;;5.88;;
77103;SDS011;66052;43.498;3.710;2022-12-24T08:03:43;9.77;;;5.57;;
77103;SDS011;66052;43.498;3.710;2022-12-24T08:06:09;10.95;;;6.13;;
77103;SDS011;66052;43.498;3.710;2022-12-24T08:08:36;9.88;;;6.03;;
77103;SDS011;66052;43.498;3.710;2022-12-24T08:11:02;9.43;;;5.82;;
77103;SDS011;66052;43.498;3.710;2022-12-24T08:13:29;20.48;;;11.73;;
77103;SDS011;66052;43.498;3.710;2022-12-24T08:15:56;9.63;;;5.93;;
77103;SDS011;66052;43.498;3.710;2022-12-24T08:18:22;8.52;;;4.85;;
77103;SDS011;66052;43.498;3.710;2022-12-24T08:20:48;11.82;;;6.47;;
77103;SDS011;66052;43.498;3.710;2022-12-24T08:23:13;11.10;;;6.28;;
77103;SDS011;66052;43.498;3.710;2022-12-24T08:25:42;8.43;;;4.97;;
77103;SDS011;66052;43.498;3.710;2022-12-24T08:28:13;8.70;;;5.00;;
77103;SDS011;66052;43.498;3.710;2022-12-24T08:30:40;17.98;;;13.90;;
77103;SDS011;66052;43.498;3.710;2022-12-24T08:33:06;14.85;;;11.55;;
77103;SDS011;66052;43.498;3.710;2022-12-24T08:35:32;13.93;;;9.07;;
77103;SDS011;66052;43.498;3.710;2022-12-24T08:37:58;14.07;;;11.13;;
77103;SDS011;66052;43.498;3.710;2022-12-24T08:40:24;17.73;;;13.20;;
77103;SDS011;66052;43.498;3.710;2022-12-24T08:42:50;15.18;;;11.07;;
77103;SDS011;66052;43.498;3.710;2022-12-24T08:45:15;15.23;;;9.98;;
77103;SDS011;66052;43.498;3.710;2022-12-24T08:47:41;10.90;;;7.35;;
77103;SDS011;66052;43.498;3.710;2022-12-24T08:50:07;8.52;;;5.55;;
77103;SDS011;66052;43.498;3.710;2022-12-24T08:52:34;9.73;;;5.50;;
77103;SDS011;66052;43.498;3.710;2022-12-24T08:54:59;9.45;;;5.93;;
77103;SDS011;66052;43.498;3.710;2022-12-24T08:57:25;12.45;;;7.70;;
77103;SDS011;66052;43.498;3.710;2022-12-24T08:59:51;13.15;;;8.23;;
77103;SDS011;66052;43.498;3.710;2022-12-24T09:02:16;14.52;;;7.60;;
77103;SDS011;66052;43.498;3.710;2022-12-24T09:04:43;9.13;;;6.05;;
77103;SDS011;66052;43.498;3.710;2022-12-24T09:07:09;9.48;;;6.18;;
77103;SDS011;66052;43.498;3.710;2022-12-24T09:09:35;8.73;;;5.38;;
77103;SDS011;66052;43.498;3.710;2022-12-24T09:12:02;8.63;;;5.80;;
77103;SDS011;66052;43.498;3.710;2022-12-24T09:14:30;11.90;;;5.60;;
77103;SDS011;66052;43.498;3.710;2022-12-24T09:16:55;7.60;;;4.50;;
77103;SDS011;66052;43.498;3.710;2022-12-24T09:19:21;8.57;;;5.18;;
77103;SDS011;66052;43.498;3.710;2022-12-24T09:21:47;7.78;;;5.28;;
77103;SDS011;66052;43.498;3.710;2022-12-24T09:24:13;9.63;;;5.82;;
77103;SDS011;66052;43.498;3.710;2022-12-24T09:26:39;8.40;;;5.63;;
77103;SDS011;66052;43.498;3.710;2022-12-24T09:29:05;11.32;;;5.75;;
77103;SDS011;66052;43.498;3.710;2022-12-24T09:31:31;9.75;;;4.90;;
77103;SDS011;66052;43.498;3.710;2022-12-24T09:33:57;8.77;;;4.70;;
77103;SDS011;66052;43.498;3.710;2022-12-24T09:36:23;6.82;;;4.35;;
77103;SDS011;66052;43.498;3.710;2022-12-24T09:38:49;6.50;;;4.28;;
77103;SDS011;66052;43.498;3.710;2022-12-24T09:43:59;12.07;;;5.50;;
77103;SDS011;66052;43.498;3.710;2022-12-24T09:46:47;10.77;;;6.20;;
77103;SDS011;66052;43.498;3.710;2022-12-24T09:49:17;11.13;;;5.45;;
77103;SDS011;66052;43.498;3.710;2022-12-24T09:51:50;9.40;;;5.15;;
77103;SDS011;66052;43.498;3.710;2022-12-24T09:54:30;7.97;;;4.85;;
77103;SDS011;66052;43.498;3.710;2022-12-24T09:57:00;10.68;;;5.53;;
77103;SDS011;66052;43.498;3.710;2022-12-24T09:59:42;9.98;;;5.65;;
77103;SDS011;66052;43.498;3.710;2022-12-24T10:02:11;9.30;;;4.95;;
77103;SDS011;66052;43.498;3.710;2022-12-24T10:04:41;8.68;;;4.38;;
77103;SDS011;66052;43.498;3.710;2022-12-24T10:25:52;3.83;;;3.20;;
77103;SDS011;66052;43.498;3.710;2022-12-24T10:28:37;7.25;;;4.18;;
77103;SDS011;66052;43.498;3.710;2022-12-24T10:31:18;7.22;;;4.03;;
77103;SDS011;66052;43.498;3.710;2022-12-24T10:33:48;6.50;;;3.78;;
77103;SDS011;66052;43.498;3.710;2022-12-24T10:36:21;8.07;;;4.90;;
77103;SDS011;66052;43.498;3.710;2022-12-24T10:38:51;8.23;;;4.50;;
77103;SDS011;66052;43.498;3.710;2022-12-24T10:41:17;8.85;;;5.65;;
77103;SDS011;66052;43.498;3.710;2022-12-24T10:43:44;6.97;;;4.57;;
77103;SDS011;66052;43.498;3.710;2022-12-24T10:48:47;4.68;;;3.17;;
77103;SDS011;66052;43.498;3.710;2022-12-24T10:56:42;3.20;;;2.00;;
77103;SDS011;66052;43.498;3.710;2022-12-24T11:04:53;5.22;;;2.40;;
77103;SDS011;66052;43.498;3.710;2022-12-24T11:07:20;2.53;;;2.20;;
77103;SDS011;66052;43.498;3.710;2022-12-24T11:12:47;2.47;;;2.03;;
77103;SDS011;66052;43.498;3.710;2022-12-24T11:18:00;3.65;;;2.08;;
77103;SDS011;66052;43.498;3.710;2022-12-24T11:20:30;4.68;;;1.98;;
77103;SDS011;66052;43.498;3.710;2022-12-24T11:22:57;3.58;;;2.00;;
77103;SDS011;66052;43.498;3.710;2022-12-24T11:25:25;3.47;;;2.40;;
77103;SDS011;66052;43.498;3.710;2022-12-24T11:27:53;4.53;;;2.35;;
77103;SDS011;66052;43.498;3.710;2022-12-24T11:30:27;5.30;;;2.78;;
77103;SDS011;66052;43.498;3.710;2022-12-24T11:35:27;3.97;;;2.28;;
77103;SDS011;66052;43.498;3.710;2022-12-24T11:43:05;4.13;;;2.20;;
77103;SDS011;66052;43.498;3.710;2022-12-24T11:45:37;5.55;;;2.72;;
77103;SDS011;66052;43.498;3.710;2022-12-24T11:48:21;3.05;;;2.00;;
77103;SDS011;66052;43.498;3.710;2022-12-24T11:50:54;4.70;;;2.40;;
77103;SDS011;66052;43.498;3.710;2022-12-24T11:53:23;4.47;;;2.20;;
77103;SDS011;66052;43.498;3.710;2022-12-24T11:59:07;3.80;;;2.35;;
77103;SDS011;66052;43.498;3.710;2022-12-24T12:01:39;2.03;;;1.92;;
77103;SDS011;66052;43.498;3.710;2022-12-24T12:04:20;4.80;;;2.75;;
77103;SDS011;66052;43.498;3.710;2022-12-24T12:09:26;2.08;;;1.88;;
77103;SDS011;66052;43.498;3.710;2022-12-24T12:11:55;2.80;;;1.92;;
77103;SDS011;66052;43.498;3.710;2022-12-24T12:14:32;2.10;;;1.80;;
77103;SDS011;66052;43.498;3.710;2022-12-24T12:19:44;2.55;;;2.22;;
77103;SDS011;66052;43.498;3.710;2022-12-24T12:22:25;4.00;;;2.05;;
77103;SDS011;66052;43.498;3.710;2022-12-24T12:25:04;3.55;;;2.30;;
77103;SDS011;66052;43.498;3.710;2022-12-24T12:27:43;2.17;;;1.98;;
77103;SDS011;66052;43.498;3.710;2022-12-24T12:30:13;2.35;;;1.90;;
77103;SDS011;66052;43.498;3.710;2022-12-24T12:32:50;2.88;;;2.30;;
77103;SDS011;66052;43.498;3.710;2022-12-24T12:35:34;2.78;;;2.03;;
77103;SDS011;66052;43.498;3.710;2022-12-24T12:38:03;2.65;;;1.90;;
77103;SDS011;66052;43.498;3.710;2022-12-24T12:51:24;4.20;;;2.17;;
77103;SDS011;66052;43.498;3.710;2022-12-24T12:56:31;2.05;;;1.95;;
77103;SDS011;66052;43.498;3.710;2022-12-24T12:59:03;2.60;;;2.17;;
77103;SDS011;66052;43.498;3.710;2022-12-24T13:01:55;3.28;;;1.80;;
77103;SDS011;66052;43.498;3.710;2022-12-24T13:07:13;4.40;;;2.00;;
77103;SDS011;66052;43.498;3.710;2022-12-24T13:21:14;3.25;;;2.30;;
77103;SDS011;66052;43.498;3.710;2022-12-24T13:23:42;3.30;;;2.45;;
77103;SDS011;66052;43.498;3.710;2022-12-24T13:26:09;2.90;;;2.28;;
77103;SDS011;66052;43.498;3.710;2022-12-24T13:28:37;3.80;;;2.38;;
77103;SDS011;66052;43.498;3.710;2022-12-24T13:33:45;2.85;;;2.30;;
77103;SDS011;66052;43.498;3.710;2022-12-24T13:36:13;3.55;;;2.40;;
77103;SDS011;66052;43.498;3.710;2022-12-24T13:46:50;4.03;;;2.03;;
77103;SDS011;66052;43.498;3.710;2022-12-24T13:49:37;2.25;;;2.00;;
77103;SDS011;66052;43.498;3.710;2022-12-24T13:54:35;4.32;;;2.40;;
77103;SDS011;66052;43.498;3.710;2022-12-24T14:00:40;2.92;;;2.15;;
77103;SDS011;66052;43.498;3.710;2022-12-24T14:03:00;2.50;;;2.30;;
77103;SDS011;66052;43.498;3.710;2022-12-24T14:08:08;2.10;;;1.90;;
77103;SDS011;66052;43.498;3.710;2022-12-24T14:10:38;3.08;;;2.50;;
77103;SDS011;66052;43.498;3.710;2022-12-24T14:16:03;4.35;;;2.10;;
77103;SDS011;66052;43.498;3.710;2022-12-24T14:18:42;3.60;;;2.33;;
77103;SDS011;66052;43.498;3.710;2022-12-24T14:21:28;3.65;;;2.45;;
77103;SDS011;66052;43.498;3.710;2022-12-24T14:23:58;3.17;;;2.00;;
77103;SDS011;66052;43.498;3.710;2022-12-24T14:26:31;2.72;;;2.00;;
77103;SDS011;66052;43.498;3.710;2022-12-24T14:31:50;3.03;;;2.20;;
77103;SDS011;66052;43.498;3.710;2022-12-24T14:34:18;4.43;;;2.50;;
77103;SDS011;66052;43.498;3.710;2022-12-24T14:36:44;2.63;;;2.17;;
77103;SDS011;66052;43.498;3.710;2022-12-24T14:39:16;3.30;;;2.42;;
77103;SDS011;66052;43.498;3.710;2022-12-24T14:41:58;2.47;;;2.20;;
77103;SDS011;66052;43.498;3.710;2022-12-24T14:44:42;3.00;;;2.58;;
77103;SDS011;66052;43.498;3.710;2022-12-24T14:55:44;4.78;;;2.75;;
77103;SDS011;66052;43.498;3.710;2022-12-24T15:00:58;4.68;;;2.58;;
77103;SDS011;66052;43.498;3.710;2022-12-24T15:03:42;2.83;;;2.30;;
77103;SDS011;66052;43.498;3.710;2022-12-24T15:06:08;4.25;;;2.72;;
77103;SDS011;66052;43.498;3.710;2022-12-24T15:08:43;2.95;;;2.35;;
77103;SDS011;66052;43.498;3.710;2022-12-24T15:11:15;5.72;;;2.97;;
77103;SDS011;66052;43.498;3.710;2022-12-24T15:13:44;5.68;;;2.90;;
77103;SDS011;66052;43.498;3.710;2022-12-24T15:16:14;5.18;;;2.83;;
77103;SDS011;66052;43.498;3.710;2022-12-24T15:18:49;4.80;;;3.20;;
77103;SDS011;66052;43.498;3.710;2022-12-24T15:21:24;3.97;;;2.78;;
77103;SDS011;66052;43.498;3.710;2022-12-24T15:23:55;5.88;;;3.40;;
77103;SDS011;66052;43.498;3.710;2022-12-24T15:26:34;5.90;;;3.20;;
77103;SDS011;66052;43.498;3.710;2022-12-24T15:29:05;5.05;;;3.33;;
77103;SDS011;66052;43.498;3.710;2022-12-24T15:31:41;5.10;;;2.95;;
77103;SDS011;66052;43.498;3.710;2022-12-24T15:34:23;4.28;;;2.95;;
77103;SDS011;66052;43.498;3.710;2022-12-24T15:37:02;4.75;;;2.90;;
77103;SDS011;66052;43.498;3.710;2022-12-24T15:39:29;3.80;;;2.90;;
77103;SDS011;66052;43.498;3.710;2022-12-24T15:41:55;4.95;;;3.22;;
77103;SDS011;66052;43.498;3.710;2022-12-24T15:44:39;5.32;;;3.40;;
77103;SDS011;66052;43.498;3.710;2022-12-24T15:47:13;6.00;;;3.40;;
77103;SDS011;66052;43.498;3.710;2022-12-24T15:49:43;6.70;;;3.35;;
77103;SDS011;66052;43.498;3.710;2022-12-24T15:52:13;5.15;;;3.25;;
77103;SDS011;66052;43.498;3.710;2022-12-24T15:54:47;4.22;;;2.83;;
77103;SDS011;66052;43.498;3.710;2022-12-24T15:57:29;4.65;;;3.08;;
77103;SDS011;66052;43.498;3.710;2022-12-24T15:59:56;5.10;;;3.20;;
77103;SDS011;66052;43.498;3.710;2022-12-24T16:10:40;5.85;;;3.10;;
77103;SDS011;66052;43.498;3.710;2022-12-24T16:13:24;5.32;;;3.40;;
77103;SDS011;66052;43.498;3.710;2022-12-24T16:16:01;6.88;;;3.42;;
77103;SDS011;66052;43.498;3.710;2022-12-24T16:21:22;7.13;;;4.05;;
77103;SDS011;66052;43.498;3.710;2022-12-24T16:24:02;6.18;;;4.20;;
77103;SDS011;66052;43.498;3.710;2022-12-24T16:26:39;7.22;;;4.35;;
77103;SDS011;66052;43.498;3.710;2022-12-24T16:29:05;6.18;;;3.90;;
77103;SDS011;66052;43.498;3.710;2022-12-24T16:31:32;5.80;;;4.15;;
77103;SDS011;66052;43.498;3.710;2022-12-24T16:34:01;7.40;;;3.58;;
77103;SDS011;66052;43.498;3.710;2022-12-24T16:36:29;5.45;;;3.25;;
77103;SDS011;66052;43.498;3.710;2022-12-24T16:38:58;4.97;;;3.10;;
77103;SDS011;66052;43.498;3.710;2022-12-24T16:41:43;5.65;;;3.05;;
77103;SDS011;66052;43.498;3.710;2022-12-24T16:44:28;5.68;;;3.33;;
77103;SDS011;66052;43.498;3.710;2022-12-24T16:46:53;6.85;;;3.95;;
77103;SDS011;66052;43.498;3.710;2022-12-24T16:49:20;8.13;;;4.10;;
77103;SDS011;66052;43.498;3.710;2022-12-24T16:51:47;4.95;;;3.53;;
77103;SDS011;66052;43.498;3.710;2022-12-24T16:54:13;9.13;;;5.82;;
77103;SDS011;66052;43.498;3.710;2022-12-24T16:56:40;19.52;;;14.18;;
77103;SDS011;66052;43.498;3.710;2022-12-24T16:59:39;15.63;;;11.73;;
77103;SDS011;66052;43.498;3.710;2022-12-24T17:01:58;17.02;;;11.38;;
77103;SDS011;66052;43.498;3.710;2022-12-24T17:04:24;17.00;;;11.50;;
77103;SDS011;66052;43.498;3.710;2022-12-24T17:06:49;15.65;;;11.45;;
77103;SDS011;66052;43.498;3.710;2022-12-24T17:09:15;10.13;;;7.43;;
77103;SDS011;66052;43.498;3.710;2022-12-24T17:11:41;9.40;;;6.38;;
77103;SDS011;66052;43.498;3.710;2022-12-24T17:14:07;6.90;;;4.63;;
77103;SDS011;66052;43.498;3.710;2022-12-24T17:16:35;6.63;;;4.20;;
77103;SDS011;66052;43.498;3.710;2022-12-24T17:19:02;8.23;;;4.43;;
77103;SDS011;66052;43.498;3.710;2022-12-24T17:21:28;9.55;;;5.85;;
77103;SDS011;66052;43.498;3.710;2022-12-24T17:23:54;9.68;;;6.90;;
77103;SDS011;66052;43.498;3.710;2022-12-24T17:26:19;12.68;;;7.55;;
77103;SDS011;66052;43.498;3.710;2022-12-24T17:28:45;10.60;;;6.85;;
77103;SDS011;66052;43.498;3.710;2022-12-24T17:31:12;13.23;;;8.05;;